createdAt,value
2018-06-01T00:01:50.692Z,4.93
2018-06-01T00:04:25.124Z,5.33
2018-06-01T00:06:59.564Z,5.10
2018-06-01T00:09:34.197Z,6.03
2018-06-01T00:12:08.565Z,4.60
2018-06-01T00:14:43.140Z,4.40
2018-06-01T00:17:18.136Z,4.93
2018-06-01T00:19:52.700Z,5.23
2018-06-01T00:22:27.013Z,4.80
2018-06-01T00:25:01.636Z,4.57
2018-06-01T00:27:36.061Z,4.47
2018-06-01T00:30:10.796Z,5.23
2018-06-01T00:32:45.180Z,4.67
2018-06-01T00:35:19.741Z,4.60
2018-06-01T00:37:54.053Z,4.63
2018-06-01T00:40:28.655Z,4.00
2018-06-01T00:43:03.095Z,4.70
2018-06-01T00:45:37.491Z,4.60
2018-06-01T00:48:11.841Z,4.90
2018-06-01T00:50:47.185Z,4.83
2018-06-01T00:53:21.452Z,4.53
2018-06-01T00:55:55.772Z,4.53
2018-06-01T00:58:30.016Z,4.27
2018-06-01T01:01:04.425Z,4.70
2018-06-01T01:03:38.701Z,5.27
2018-06-01T01:06:12.996Z,4.93
2018-06-01T01:08:47.285Z,4.43
2018-06-01T01:11:22.333Z,6.20
2018-06-01T01:13:56.857Z,4.57
2018-06-01T01:16:31.295Z,4.20
2018-06-01T01:19:05.809Z,5.67
2018-06-01T01:21:40.216Z,4.80
2018-06-01T01:24:14.569Z,4.60
2018-06-01T01:26:48.946Z,4.77
2018-06-01T01:29:23.188Z,5.83
2018-06-01T01:31:58.404Z,4.63
2018-06-01T01:34:32.944Z,4.67
2018-06-01T01:37:07.261Z,4.93
2018-06-01T01:39:41.628Z,6.07
2018-06-01T01:42:16.037Z,4.00
2018-06-01T01:44:50.397Z,4.97
2018-06-01T01:47:24.946Z,5.30
2018-06-01T01:49:59.356Z,4.30
2018-06-01T01:52:34.372Z,4.37
2018-06-01T01:55:08.657Z,4.40
2018-06-01T01:57:42.916Z,4.73
2018-06-01T02:00:18.065Z,4.63
2018-06-01T02:02:52.460Z,4.60
2018-06-01T02:05:27.732Z,4.93
2018-06-01T02:08:02.156Z,4.40
2018-06-01T02:10:36.468Z,4.10
2018-06-01T02:13:11.610Z,4.87
2018-06-01T02:15:45.893Z,4.40
2018-06-01T02:18:20.328Z,4.77
2018-06-01T02:20:54.672Z,5.03
2018-06-01T02:23:28.984Z,4.40
2018-06-01T02:26:04.196Z,4.10
2018-06-01T02:28:38.631Z,4.93
2018-06-01T02:31:12.900Z,4.57
2018-06-01T02:33:47.257Z,4.50
2018-06-01T02:36:21.570Z,4.37
2018-06-01T02:38:55.960Z,4.63
2018-06-01T02:41:30.355Z,4.63
2018-06-01T02:44:04.698Z,29.57
2018-06-01T02:46:39.129Z,30.73
2018-06-01T02:49:14.193Z,31.73
2018-06-01T02:51:48.754Z,29.53
2018-06-01T02:54:23.756Z,26.97
2018-06-01T02:56:58.400Z,34.23
2018-06-01T02:59:32.688Z,39.93
2018-06-01T03:02:08.656Z,38.20
2018-06-01T03:04:43.188Z,18.20
2018-06-01T03:07:17.606Z,19.77
2018-06-01T03:09:51.909Z,21.40
2018-06-01T03:12:27.173Z,31.33
2018-06-01T03:15:01.568Z,24.23
2018-06-01T03:17:35.912Z,34.10
2018-06-01T03:20:10.641Z,39.00
2018-06-01T03:22:45.144Z,33.17
2018-06-01T03:25:20.405Z,23.27
2018-06-01T03:27:54.680Z,36.83
2018-06-01T03:30:29.140Z,42.50
2018-06-01T03:33:03.564Z,31.20
2018-06-01T03:35:37.979Z,82.33
2018-06-01T03:38:12.325Z,98.97
2018-06-01T03:40:46.837Z,51.50
2018-06-01T03:43:21.129Z,43.20
2018-06-01T03:45:55.551Z,37.90
2018-06-01T03:48:29.980Z,32.63
2018-06-01T03:51:04.323Z,27.73
2018-06-01T03:53:38.616Z,31.17
2018-06-01T03:56:12.934Z,34.17
2018-06-01T03:58:47.251Z,36.93
2018-06-01T04:01:21.758Z,39.33
2018-06-01T04:03:57.029Z,38.77
2018-06-01T04:06:31.424Z,26.83
2018-06-01T04:09:06.800Z,35.87
2018-06-01T04:11:42.120Z,27.43
2018-06-01T04:14:16.608Z,44.50
2018-06-01T04:16:50.943Z,38.87
2018-06-01T04:19:25.289Z,41.17
2018-06-01T04:21:59.677Z,38.20
2018-06-01T04:24:34.211Z,41.03
2018-06-01T04:27:08.708Z,40.30
2018-06-01T04:29:42.963Z,40.67
2018-06-01T04:32:17.485Z,38.60
2018-06-01T04:34:51.796Z,37.87
2018-06-01T04:37:26.224Z,28.77
2018-06-01T04:40:00.623Z,24.47
2018-06-01T04:42:35.189Z,38.57
2018-06-01T04:45:09.609Z,38.97
2018-06-01T04:47:44.121Z,33.13
2018-06-01T04:50:19.240Z,26.47
2018-06-01T04:52:53.561Z,31.33
2018-06-01T04:55:28.305Z,32.43
2018-06-01T04:58:02.793Z,37.70
2018-06-01T05:00:37.120Z,36.43
2018-06-01T05:03:11.418Z,29.03
2018-06-01T05:05:45.752Z,32.47
2018-06-01T05:08:20.300Z,30.53
2018-06-01T05:10:54.825Z,33.20
2018-06-01T05:13:29.133Z,30.93
2018-06-01T05:16:03.455Z,29.70
2018-06-01T05:18:37.864Z,32.37
2018-06-01T05:21:12.150Z,34.40
2018-06-01T05:23:46.802Z,32.30
2018-06-01T05:26:21.141Z,34.37
2018-06-01T05:28:55.400Z,27.20
2018-06-01T05:31:29.749Z,34.50
2018-06-01T05:34:04.183Z,34.60
2018-06-01T05:36:38.504Z,31.10
2018-06-01T05:39:13.856Z,23.90
2018-06-01T05:41:48.276Z,33.07
2018-06-01T05:44:22.645Z,35.73
2018-06-01T05:46:57.029Z,34.23
2018-06-01T05:49:32.164Z,35.03
2018-06-01T05:52:07.402Z,38.43
2018-06-01T05:54:41.800Z,37.20
2018-06-01T05:57:16.288Z,39.20
2018-06-01T05:59:51.480Z,29.30
2018-06-01T06:02:25.917Z,35.17
2018-06-01T06:05:00.220Z,31.63
2018-06-01T06:07:34.860Z,35.67
2018-06-01T06:10:09.173Z,30.10
2018-06-01T06:12:43.465Z,31.17
2018-06-01T06:15:17.906Z,31.53
2018-06-01T06:17:52.337Z,28.93
2018-06-01T06:20:26.613Z,30.10
2018-06-01T06:23:01.140Z,25.23
2018-06-01T06:25:35.532Z,28.10
2018-06-01T06:28:10.031Z,22.53
2018-06-01T06:30:44.440Z,20.90
2018-06-01T06:33:18.860Z,27.87
2018-06-01T06:35:54.881Z,27.40
2018-06-01T06:38:29.428Z,31.80
2018-06-01T06:41:04.565Z,22.47
2018-06-01T06:43:38.861Z,21.40
2018-06-01T06:46:13.313Z,25.10
2018-06-01T06:48:47.825Z,23.60
2018-06-01T06:51:22.460Z,23.73
2018-06-01T06:53:56.981Z,21.37
2018-06-01T06:56:31.472Z,25.07
2018-06-01T06:59:05.926Z,26.37
2018-06-01T07:01:40.448Z,28.90
2018-06-01T07:04:15.064Z,20.97
2018-06-01T07:06:49.367Z,19.93
2018-06-01T07:09:24.408Z,18.20
2018-06-01T07:11:59.048Z,17.93
2018-06-01T07:14:34.985Z,24.20
2018-06-01T07:17:09.260Z,19.03
2018-06-01T07:19:43.580Z,15.07
2018-06-01T07:22:18.042Z,18.53
2018-06-01T07:24:52.772Z,17.53
2018-06-01T07:27:27.188Z,20.70
2018-06-01T07:30:01.544Z,24.10
2018-06-01T07:32:36.052Z,22.83
2018-06-01T07:35:10.477Z,21.37
2018-06-01T07:37:44.897Z,23.30
2018-06-01T07:40:19.455Z,21.23
2018-06-01T07:42:53.956Z,22.50
2018-06-01T07:45:28.448Z,21.93
2018-06-01T07:48:03.092Z,24.17
2018-06-01T07:50:37.622Z,21.33
2018-06-01T07:53:11.977Z,28.00
2018-06-01T07:55:46.344Z,23.20
2018-06-01T07:58:20.777Z,28.83
2018-06-01T08:00:55.296Z,27.17
2018-06-01T08:03:29.584Z,29.80
2018-06-01T08:06:03.912Z,32.33
2018-06-01T08:08:38.348Z,39.20
2018-06-01T08:11:12.992Z,45.00
2018-06-01T08:13:47.377Z,45.83
2018-06-01T08:16:21.921Z,46.43
2018-06-01T08:18:56.316Z,43.33
2018-06-01T08:21:30.738Z,40.53
2018-06-01T08:24:05.384Z,34.60
2018-06-01T08:26:39.676Z,42.73
2018-06-01T08:29:14.109Z,42.30
2018-06-01T08:31:48.391Z,45.53
2018-06-01T08:34:22.739Z,50.30
2018-06-01T08:36:57.044Z,55.87
2018-06-01T08:39:31.650Z,47.47
2018-06-01T08:42:06.024Z,50.03
2018-06-01T08:44:40.540Z,47.97
2018-06-01T08:47:15.839Z,50.10
2018-06-01T08:49:50.209Z,43.00
2018-06-01T08:52:24.613Z,45.53
2018-06-01T08:54:58.944Z,36.07
2018-06-01T08:57:53.195Z,38.97
2018-06-01T09:00:27.580Z,33.53
2018-06-01T09:03:02.062Z,42.10
2018-06-01T09:05:36.513Z,44.97
2018-06-01T09:08:11.025Z,28.07
2018-06-01T09:10:45.284Z,36.00
2018-06-01T09:13:19.744Z,42.33
2018-06-01T09:15:55.000Z,32.40
2018-06-01T09:18:29.376Z,44.17
2018-06-01T09:21:03.692Z,20.60
2018-06-01T09:23:38.028Z,20.20
2018-06-01T09:26:12.372Z,14.90
2018-06-01T09:28:46.673Z,14.83
2018-06-01T09:31:20.995Z,13.63
2018-06-01T09:33:55.489Z,13.73
2018-06-01T09:36:29.769Z,11.77
2018-06-01T09:39:06.109Z,10.83
2018-06-01T09:41:40.556Z,11.63
2018-06-01T09:44:14.972Z,9.83
2018-06-01T09:46:50.896Z,9.67
2018-06-01T09:49:25.436Z,14.63
2018-06-01T09:51:59.827Z,11.57
2018-06-01T09:54:34.388Z,14.03
2018-06-01T09:57:08.644Z,10.67
2018-06-01T09:59:43.220Z,10.60
2018-06-01T10:02:17.503Z,11.57
2018-06-01T10:04:52.204Z,9.20
2018-06-01T10:07:26.592Z,9.60
2018-06-01T10:10:06.451Z,10.40
2018-06-01T10:12:40.860Z,10.10
2018-06-01T10:15:15.378Z,9.70
2018-06-01T10:17:49.664Z,10.47
2018-06-01T10:20:24.097Z,11.07
2018-06-01T10:22:58.537Z,33.57
2018-06-01T10:25:33.265Z,12.50
2018-06-01T10:28:07.789Z,19.80
2018-06-01T10:30:42.208Z,17.80
2018-06-01T10:33:17.556Z,12.83
2018-06-01T10:35:51.955Z,15.63
2018-06-01T10:38:26.500Z,13.67
2018-06-01T10:41:00.921Z,27.97
2018-06-01T10:43:35.272Z,12.33
2018-06-01T10:46:09.862Z,9.57
2018-06-01T10:48:44.376Z,21.23
2018-06-01T10:51:18.852Z,18.63
2018-06-01T10:53:53.181Z,10.17
2018-06-01T10:56:27.432Z,10.83
2018-06-01T10:59:01.801Z,22.53
2018-06-01T11:01:36.533Z,21.27
2018-06-01T11:04:10.915Z,15.00
2018-06-01T11:06:45.297Z,11.30
2018-06-01T11:09:19.612Z,13.83
2018-06-01T11:11:53.932Z,10.17
2018-06-01T11:14:28.516Z,23.33
2018-06-01T11:17:03.017Z,20.47
2018-06-01T11:19:37.392Z,9.90
2018-06-01T11:22:11.745Z,14.03
2018-06-01T11:24:46.378Z,14.97
2018-06-01T11:27:21.513Z,19.67
2018-06-01T11:29:55.800Z,17.60
2018-06-01T11:32:30.960Z,16.07
2018-06-01T11:35:05.778Z,15.77
2018-06-01T11:37:40.080Z,14.87
2018-06-01T11:40:14.400Z,17.50
2018-06-01T11:42:48.864Z,13.03
2018-06-01T11:45:23.376Z,15.10
2018-06-01T11:47:57.680Z,16.13
2018-06-01T11:50:31.956Z,18.30
2018-06-01T11:53:06.537Z,30.70
2018-06-01T11:55:41.552Z,30.60
2018-06-01T11:58:16.057Z,29.13
2018-06-01T12:00:50.629Z,28.43
2018-06-01T12:03:25.013Z,27.30
2018-06-01T12:05:59.472Z,17.93
2018-06-01T12:08:47.404Z,21.67
2018-06-01T12:11:22.628Z,18.53
2018-06-01T12:13:57.160Z,18.13
2018-06-01T12:16:31.419Z,13.43
2018-06-01T12:19:05.833Z,22.43
2018-06-01T12:21:40.212Z,21.57
2018-06-01T12:24:14.604Z,13.77
2018-06-01T12:26:49.077Z,18.53
2018-06-01T12:29:23.603Z,14.23
2018-06-01T12:31:57.892Z,12.30
2018-06-01T12:34:32.245Z,14.33
2018-06-01T12:37:06.705Z,19.27
2018-06-01T12:39:41.156Z,17.63
2018-06-01T12:42:15.651Z,23.27
2018-06-01T12:44:50.144Z,22.73
2018-06-01T12:47:24.596Z,21.50
2018-06-01T12:49:58.861Z,15.60
2018-06-01T12:52:33.205Z,17.07
2018-06-01T12:55:07.653Z,26.20
2018-06-01T12:57:42.071Z,28.60
2018-06-01T13:00:16.505Z,18.03
2018-06-01T13:02:50.821Z,29.60
2018-06-01T13:05:25.323Z,24.33
2018-06-01T13:08:00.033Z,24.73
2018-06-01T13:10:34.408Z,18.40
2018-06-01T13:13:08.760Z,17.43
2018-06-01T13:15:43.320Z,16.27
2018-06-01T13:18:17.620Z,23.50
2018-06-01T13:20:52.064Z,22.33
2018-06-01T13:23:26.453Z,25.77
2018-06-01T13:26:00.992Z,19.13
2018-06-01T13:28:35.356Z,23.50
2018-06-01T13:31:09.692Z,19.23
2018-06-01T13:33:44.165Z,19.80
2018-06-01T13:36:18.489Z,22.60
2018-06-01T13:38:52.768Z,22.53
2018-06-01T13:41:27.229Z,17.03
2018-06-01T13:44:03.818Z,20.90
2018-06-01T13:46:38.375Z,17.00
2018-06-01T13:49:14.141Z,17.30
2018-06-01T13:51:48.581Z,18.10
2018-06-01T13:54:22.976Z,19.20
2018-06-01T13:56:57.264Z,18.47
2018-06-01T13:59:31.860Z,19.57
2018-06-01T14:02:06.270Z,16.00
2018-06-01T14:04:40.699Z,22.87
2018-06-01T14:07:14.977Z,19.40
2018-06-01T14:09:49.341Z,24.00
2018-06-01T14:12:24.389Z,21.80
2018-06-01T14:14:59.641Z,15.67
2018-06-01T14:17:34.060Z,17.33
2018-06-01T14:20:08.553Z,16.13
2018-06-01T14:22:42.996Z,27.03
2018-06-01T14:25:18.227Z,23.63
2018-06-01T14:27:52.541Z,23.93
2018-06-01T14:30:26.980Z,21.77
2018-06-01T14:33:01.337Z,25.30
2018-06-01T14:35:35.808Z,24.37
2018-06-01T14:38:10.140Z,22.77
2018-06-01T14:40:44.878Z,25.40
2018-06-01T14:43:19.365Z,24.13
2018-06-01T14:45:54.536Z,22.23
2018-06-01T14:48:28.826Z,21.37
2018-06-01T14:51:03.368Z,21.23
2018-06-01T14:53:37.996Z,21.97
2018-06-01T14:56:12.512Z,22.33
2018-06-01T14:58:47.059Z,18.97
2018-06-01T15:01:21.465Z,20.43
2018-06-01T15:03:56.044Z,17.40
2018-06-01T15:06:30.503Z,22.90
2018-06-01T15:09:05.748Z,19.53
2018-06-01T15:11:40.133Z,26.77
2018-06-01T15:14:14.528Z,19.40
2018-06-01T15:16:49.917Z,19.87
2018-06-01T15:19:24.457Z,13.30
2018-06-01T15:21:58.871Z,16.60
2018-06-01T15:24:33.377Z,21.83
2018-06-01T15:27:07.825Z,17.43
2018-06-01T15:29:42.155Z,17.03
2018-06-01T15:32:17.257Z,38.70
2018-06-01T15:34:51.801Z,35.60
2018-06-01T15:37:26.333Z,33.17
2018-06-01T15:40:02.388Z,20.47
2018-06-01T15:42:37.009Z,37.90
2018-06-01T15:45:11.301Z,21.20
2018-06-01T15:47:45.697Z,28.73
2018-06-01T15:50:20.064Z,24.73
2018-06-01T15:52:54.560Z,20.33
2018-06-01T15:55:28.982Z,18.63
2018-06-01T15:58:03.384Z,18.07
2018-06-01T16:00:37.839Z,22.63
2018-06-01T16:03:12.208Z,17.80
2018-06-01T16:05:46.885Z,16.20
2018-06-01T16:08:21.335Z,32.40
2018-06-01T16:10:55.600Z,16.70
2018-06-01T16:13:30.260Z,33.17
2018-06-01T16:16:04.648Z,29.70
2018-06-01T16:18:38.944Z,18.10
2018-06-01T16:21:14.940Z,30.93
2018-06-01T16:23:49.271Z,31.23
2018-06-01T16:26:23.595Z,17.57
2018-06-01T16:28:58.017Z,33.20
2018-06-01T16:31:32.532Z,22.70
2018-06-01T16:34:08.184Z,31.20
2018-06-01T16:36:45.957Z,34.97
2018-06-01T16:39:20.277Z,23.37
2018-06-01T16:41:54.725Z,22.90
2018-06-01T16:44:29.320Z,20.63
2018-06-01T16:47:05.188Z,31.87
2018-06-01T16:49:41.157Z,24.60
2018-06-01T16:52:16.173Z,33.13
2018-06-01T16:54:50.609Z,30.37
2018-06-01T16:57:25.036Z,30.77
2018-06-01T16:59:59.362Z,22.93
2018-06-01T17:02:33.884Z,32.10
2018-06-01T17:05:08.288Z,21.90
2018-06-01T17:07:42.748Z,31.90
2018-06-01T17:10:18.155Z,47.63
2018-06-01T17:12:52.713Z,49.07
2018-06-01T17:15:27.130Z,48.70
2018-06-01T17:18:01.521Z,40.97
2018-06-01T17:20:36.049Z,37.23
2018-06-01T17:23:11.164Z,46.47
2018-06-01T17:25:45.603Z,40.20
2018-06-01T17:28:19.896Z,37.30
2018-06-01T17:30:54.352Z,33.63
2018-06-01T17:33:29.775Z,53.97
2018-06-01T17:36:03.991Z,38.00
2018-06-01T17:38:38.436Z,33.00
2018-06-01T17:41:12.924Z,35.97
2018-06-01T17:43:47.349Z,28.03
2018-06-01T17:46:21.770Z,18.70
2018-06-01T17:48:56.926Z,15.57
2018-06-01T17:51:32.311Z,14.73
2018-06-01T17:54:06.792Z,14.67
2018-06-01T17:56:41.200Z,13.03
2018-06-01T17:59:15.476Z,10.43
2018-06-01T18:01:50.640Z,8.90
2018-06-01T18:04:25.292Z,11.10
2018-06-01T18:06:59.802Z,10.73
2018-06-01T18:09:34.079Z,9.63
2018-06-01T18:12:08.453Z,15.03
2018-06-01T18:14:42.872Z,8.93
2018-06-01T18:17:17.401Z,10.20
2018-06-01T18:19:51.664Z,9.67
2018-06-01T18:22:26.895Z,8.80
2018-06-01T18:25:01.149Z,8.40
2018-06-01T18:27:38.459Z,9.97
2018-06-01T18:30:13.511Z,10.77
2018-06-01T18:32:48.157Z,13.27
2018-06-01T18:35:22.434Z,10.43
2018-06-01T18:37:56.833Z,9.27
2018-06-01T18:40:31.183Z,10.63
2018-06-01T18:43:05.500Z,10.00
2018-06-01T18:45:39.820Z,9.20
2018-06-01T18:48:14.291Z,8.90
2018-06-01T18:50:48.673Z,11.13
2018-06-01T18:53:23.168Z,11.03
2018-06-01T18:55:57.506Z,9.83
2018-06-01T18:58:31.893Z,10.50
2018-06-01T19:01:06.233Z,12.53
2018-06-01T19:03:40.636Z,11.73
2018-06-01T19:06:15.163Z,17.03
2018-06-01T19:08:49.616Z,23.47
2018-06-01T19:11:24.917Z,40.23
2018-06-01T19:13:59.276Z,41.60
2018-06-01T19:16:33.599Z,29.90
2018-06-01T19:19:07.928Z,42.63
2018-06-01T19:21:42.283Z,28.13
2018-06-01T19:24:16.951Z,21.23
2018-06-01T19:26:51.369Z,43.73
2018-06-01T19:29:25.892Z,20.53
2018-06-01T19:32:00.203Z,16.57
2018-06-01T19:34:34.636Z,14.27
2018-06-01T19:37:09.872Z,14.40
2018-06-01T19:39:44.289Z,14.60
2018-06-01T19:42:19.408Z,13.67
2018-06-01T19:44:53.864Z,15.37
2018-06-01T19:47:28.340Z,11.93
2018-06-01T19:50:03.513Z,11.00
2018-06-01T19:52:37.810Z,10.97
2018-06-01T19:55:12.096Z,11.50
2018-06-01T19:57:46.873Z,10.60
2018-06-01T20:00:21.136Z,9.93
2018-06-01T20:02:55.716Z,11.77
2018-06-01T20:05:30.236Z,10.27
2018-06-01T20:08:04.551Z,9.53
2018-06-01T20:10:38.872Z,9.67
2018-06-01T20:13:13.661Z,8.07
2018-06-01T20:15:47.998Z,8.80
2018-06-01T20:18:23.253Z,9.53
2018-06-01T20:20:57.567Z,8.37
2018-06-01T20:23:31.897Z,8.13
2018-06-01T20:26:06.420Z,7.57
2018-06-01T20:28:40.913Z,7.77
2018-06-01T20:31:15.463Z,6.37
2018-06-01T20:33:49.978Z,7.67
2018-06-01T20:36:24.409Z,8.53
2018-06-01T20:38:58.696Z,6.80
2018-06-01T20:41:32.949Z,6.10
2018-06-01T20:44:07.413Z,6.40
2018-06-01T20:46:41.781Z,6.87
2018-06-01T20:49:16.896Z,6.40
2018-06-01T20:51:51.928Z,7.53
2018-06-01T20:54:26.175Z,5.80
2018-06-01T20:57:00.453Z,6.60
2018-06-01T20:59:34.908Z,6.43
2018-06-01T21:02:10.133Z,7.03
2018-06-01T21:04:44.672Z,5.40
2018-06-01T21:07:18.937Z,5.60
2018-06-01T21:09:53.248Z,6.10
2018-06-01T21:12:27.832Z,8.30
2018-06-01T21:15:02.096Z,5.83
2018-06-01T21:17:36.573Z,5.80
2018-06-01T21:20:11.195Z,5.80
2018-06-01T21:22:45.644Z,5.77
2018-06-01T21:25:20.044Z,6.20
2018-06-01T21:27:54.448Z,6.20
2018-06-01T21:30:28.876Z,5.90
2018-06-01T21:33:03.297Z,6.67
2018-06-01T21:35:38.505Z,10.60
2018-06-01T21:38:12.961Z,8.77
2018-06-01T21:40:48.061Z,8.53
2018-06-01T21:43:22.617Z,6.10
2018-06-01T21:45:57.240Z,11.20
2018-06-01T21:48:31.532Z,10.23
2018-06-01T21:51:06.001Z,11.43
2018-06-01T21:53:40.470Z,6.30
2018-06-01T21:56:14.931Z,9.57
2018-06-01T21:58:49.170Z,10.23
2018-06-01T22:01:23.553Z,8.17
2018-06-01T22:03:57.853Z,8.43
2018-06-01T22:06:32.509Z,6.53
2018-06-01T22:09:06.790Z,6.87
2018-06-01T22:11:41.148Z,12.47
2018-06-01T22:14:15.546Z,12.00
2018-06-01T22:16:50.089Z,6.47
2018-06-01T22:19:24.516Z,22.27
2018-06-01T22:21:58.885Z,8.17
2018-06-01T22:24:33.424Z,6.27
2018-06-01T22:27:07.982Z,10.37
2018-06-01T22:29:42.392Z,6.13
2018-06-01T22:32:16.756Z,6.17
2018-06-01T22:34:51.116Z,7.20
2018-06-01T22:37:25.561Z,6.13
2018-06-01T22:39:59.972Z,6.33
2018-06-01T22:42:34.268Z,6.13
2018-06-01T22:45:08.822Z,20.87
2018-06-01T22:47:43.253Z,6.23
2018-06-01T22:50:17.764Z,6.23
2018-06-01T22:52:52.196Z,14.00
2018-06-01T22:55:26.473Z,7.23
2018-06-01T22:58:02.228Z,5.93
2018-06-01T23:00:41.529Z,6.27
2018-06-01T23:03:15.768Z,6.07
2018-06-01T23:05:51.044Z,7.93
2018-06-01T23:08:25.446Z,17.47
2018-06-01T23:10:59.988Z,6.93
2018-06-01T23:13:34.400Z,8.93
2018-06-01T23:16:08.893Z,6.13
2018-06-01T23:18:44.143Z,8.60
2018-06-01T23:21:18.616Z,5.87
2018-06-01T23:23:52.893Z,11.07
2018-06-01T23:26:27.344Z,7.60
2018-06-01T23:29:01.853Z,16.23
2018-06-01T23:31:36.353Z,6.70
2018-06-01T23:34:10.692Z,7.20
2018-06-01T23:36:45.000Z,6.57
2018-06-01T23:39:19.228Z,6.83
2018-06-01T23:41:53.656Z,13.10
2018-06-01T23:44:28.264Z,6.07
2018-06-01T23:47:02.696Z,14.73
2018-06-01T23:49:36.999Z,6.87
2018-06-01T23:52:11.425Z,10.53
2018-06-01T23:54:45.829Z,5.73
2018-06-01T23:57:20.176Z,16.43
2018-06-01T23:59:54.591Z,7.10
